sensor_id;sensor_type;location;lat;lon;timestamp;P1;durP1;ratioP1;P2;durP2;ratioP2
16480;SDS011;44634;54.110;12.138;2023-05-10T00:01:52;5.30;;;3.30;;
16480;SDS011;44634;54.110;12.138;2023-05-10T00:04:20;3.53;;;3.27;;
16480;SDS011;44634;54.110;12.138;2023-05-10T00:06:48;3.07;;;2.87;;
16480;SDS011;44634;54.110;12.138;2023-05-10T00:09:16;3.27;;;3.07;;
16480;SDS011;44634;54.110;12.138;2023-05-10T00:11:44;3.50;;;3.20;;
16480;SDS011;44634;54.110;12.138;2023-05-10T00:14:12;3.40;;;3.20;;
16480;SDS011;44634;54.110;12.138;2023-05-10T00:16:41;3.30;;;3.10;;
16480;SDS011;44634;54.110;12.138;2023-05-10T00:19:09;3.63;;;2.87;;
16480;SDS011;44634;54.110;12.138;2023-05-10T00:21:36;3.93;;;3.53;;
16480;SDS011;44634;54.110;12.138;2023-05-10T00:24:04;3.60;;;3.30;;
16480;SDS011;44634;54.110;12.138;2023-05-10T00:26:32;5.13;;;3.37;;
16480;SDS011;44634;54.110;12.138;2023-05-10T00:29:00;4.57;;;3.17;;
16480;SDS011;44634;54.110;12.138;2023-05-10T00:31:28;5.90;;;3.87;;
16480;SDS011;44634;54.110;12.138;2023-05-10T00:33:57;3.10;;;2.90;;
16480;SDS011;44634;54.110;12.138;2023-05-10T00:36:25;3.70;;;3.40;;
16480;SDS011;44634;54.110;12.138;2023-05-10T00:38:53;4.53;;;3.43;;
16480;SDS011;44634;54.110;12.138;2023-05-10T00:41:21;4.83;;;3.70;;
16480;SDS011;44634;54.110;12.138;2023-05-10T00:43:49;3.60;;;3.30;;
16480;SDS011;44634;54.110;12.138;2023-05-10T00:46:17;3.30;;;3.10;;
16480;SDS011;44634;54.110;12.138;2023-05-10T00:48:45;5.50;;;3.47;;
16480;SDS011;44634;54.110;12.138;2023-05-10T00:51:15;4.00;;;3.40;;
16480;SDS011;44634;54.110;12.138;2023-05-10T00:53:43;4.13;;;3.30;;
16480;SDS011;44634;54.110;12.138;2023-05-10T00:56:11;3.37;;;3.17;;
16480;SDS011;44634;54.110;12.138;2023-05-10T00:58:39;2.93;;;2.73;;
16480;SDS011;44634;54.110;12.138;2023-05-10T01:01:07;4.07;;;3.70;;
16480;SDS011;44634;54.110;12.138;2023-05-10T01:03:37;3.50;;;3.20;;
16480;SDS011;44634;54.110;12.138;2023-05-10T01:06:05;4.03;;;3.73;;
16480;SDS011;44634;54.110;12.138;2023-05-10T01:08:34;4.97;;;3.10;;
16480;SDS011;44634;54.110;12.138;2023-05-10T01:11:02;5.73;;;3.53;;
16480;SDS011;44634;54.110;12.138;2023-05-10T01:13:31;3.90;;;3.47;;
16480;SDS011;44634;54.110;12.138;2023-05-10T01:16:02;3.73;;;3.53;;
16480;SDS011;44634;54.110;12.138;2023-05-10T01:18:31;3.87;;;3.57;;
16480;SDS011;44634;54.110;12.138;2023-05-10T01:21:05;3.47;;;3.17;;
16480;SDS011;44634;54.110;12.138;2023-05-10T01:23:45;3.77;;;3.47;;
16480;SDS011;44634;54.110;12.138;2023-05-10T01:26:48;3.93;;;3.60;;
16480;SDS011;44634;54.110;12.138;2023-05-10T01:29:44;3.80;;;3.57;;
16480;SDS011;44634;54.110;12.138;2023-05-10T01:32:49;4.07;;;3.70;;
16480;SDS011;44634;54.110;12.138;2023-05-10T01:35:26;3.73;;;3.43;;
16480;SDS011;44634;54.110;12.138;2023-05-10T01:38:04;4.00;;;3.70;;
16480;SDS011;44634;54.110;12.138;2023-05-10T01:40:39;3.90;;;3.60;;
16480;SDS011;44634;54.110;12.138;2023-05-10T01:43:19;4.73;;;3.73;;
16480;SDS011;44634;54.110;12.138;2023-05-10T01:45:55;4.07;;;3.70;;
16480;SDS011;44634;54.110;12.138;2023-05-10T01:48:32;6.10;;;3.80;;
16480;SDS011;44634;54.110;12.138;2023-05-10T01:51:00;3.37;;;3.13;;
16480;SDS011;44634;54.110;12.138;2023-05-10T01:53:29;3.70;;;3.50;;
16480;SDS011;44634;54.110;12.138;2023-05-10T01:55:58;3.83;;;3.47;;
16480;SDS011;44634;54.110;12.138;2023-05-10T01:58:29;4.07;;;3.73;;
16480;SDS011;44634;54.110;12.138;2023-05-10T02:01:00;4.43;;;4.03;;
16480;SDS011;44634;54.110;12.138;2023-05-10T02:03:32;3.93;;;3.53;;
16480;SDS011;44634;54.110;12.138;2023-05-10T02:06:04;4.40;;;4.00;;
16480;SDS011;44634;54.110;12.138;2023-05-10T02:08:33;4.17;;;3.70;;
16480;SDS011;44634;54.110;12.138;2023-05-10T02:11:02;4.03;;;3.67;;
16480;SDS011;44634;54.110;12.138;2023-05-10T02:13:32;4.70;;;3.80;;
16480;SDS011;44634;54.110;12.138;2023-05-10T02:16:02;4.77;;;4.17;;
16480;SDS011;44634;54.110;12.138;2023-05-10T02:18:34;4.13;;;3.73;;
16480;SDS011;44634;54.110;12.138;2023-05-10T02:21:03;4.50;;;4.10;;
16480;SDS011;44634;54.110;12.138;2023-05-10T02:23:32;3.97;;;3.67;;
16480;SDS011;44634;54.110;12.138;2023-05-10T02:26:01;5.30;;;4.00;;
16480;SDS011;44634;54.110;12.138;2023-05-10T02:28:31;5.27;;;4.20;;
16480;SDS011;44634;54.110;12.138;2023-05-10T02:31:01;4.13;;;3.73;;
16480;SDS011;44634;54.110;12.138;2023-05-10T02:33:29;4.03;;;3.67;;
16480;SDS011;44634;54.110;12.138;2023-05-10T02:36:01;4.10;;;3.80;;
16480;SDS011;44634;54.110;12.138;2023-05-10T02:38:30;4.83;;;4.23;;
16480;SDS011;44634;54.110;12.138;2023-05-10T02:41:00;6.03;;;4.40;;
16480;SDS011;44634;54.110;12.138;2023-05-10T02:43:29;4.87;;;4.47;;
16480;SDS011;44634;54.110;12.138;2023-05-10T02:45:59;4.40;;;4.00;;
16480;SDS011;44634;54.110;12.138;2023-05-10T02:48:27;4.10;;;3.80;;
16480;SDS011;44634;54.110;12.138;2023-05-10T02:50:56;4.40;;;4.10;;
16480;SDS011;44634;54.110;12.138;2023-05-10T02:53:32;4.83;;;3.73;;
16480;SDS011;44634;54.110;12.138;2023-05-10T02:56:04;4.30;;;4.00;;
16480;SDS011;44634;54.110;12.138;2023-05-10T02:58:37;4.40;;;4.00;;
16480;SDS011;44634;54.110;12.138;2023-05-10T03:01:04;5.20;;;4.10;;
16480;SDS011;44634;54.110;12.138;2023-05-10T03:03:33;4.00;;;3.70;;
16480;SDS011;44634;54.110;12.138;2023-05-10T03:06:03;4.67;;;4.27;;
16480;SDS011;44634;54.110;12.138;2023-05-10T03:08:31;5.50;;;4.10;;
16480;SDS011;44634;54.110;12.138;2023-05-10T03:11:03;5.03;;;3.90;;
16480;SDS011;44634;54.110;12.138;2023-05-10T03:13:44;4.67;;;4.00;;
16480;SDS011;44634;54.110;12.138;2023-05-10T03:16:24;6.60;;;4.53;;
16480;SDS011;44634;54.110;12.138;2023-05-10T03:18:58;5.07;;;3.93;;
16480;SDS011;44634;54.110;12.138;2023-05-10T03:21:35;4.90;;;4.43;;
16480;SDS011;44634;54.110;12.138;2023-05-10T03:24:09;4.67;;;4.27;;
16480;SDS011;44634;54.110;12.138;2023-05-10T03:26:41;4.73;;;4.33;;
16480;SDS011;44634;54.110;12.138;2023-05-10T03:29:11;5.13;;;4.73;;
16480;SDS011;44634;54.110;12.138;2023-05-10T03:31:41;7.93;;;6.33;;
16480;SDS011;44634;54.110;12.138;2023-05-10T03:34:09;5.17;;;4.70;;
16480;SDS011;44634;54.110;12.138;2023-05-10T03:36:38;7.30;;;4.90;;
16480;SDS011;44634;54.110;12.138;2023-05-10T03:39:06;7.23;;;4.60;;
16480;SDS011;44634;54.110;12.138;2023-05-10T03:41:35;4.43;;;4.03;;
16480;SDS011;44634;54.110;12.138;2023-05-10T03:44:02;5.00;;;4.50;;
16480;SDS011;44634;54.110;12.138;2023-05-10T03:46:30;6.03;;;4.03;;
16480;SDS011;44634;54.110;12.138;2023-05-10T03:48:58;5.23;;;4.83;;
16480;SDS011;44634;54.110;12.138;2023-05-10T03:51:27;4.40;;;4.00;;
16480;SDS011;44634;54.110;12.138;2023-05-10T03:53:56;4.20;;;3.90;;
16480;SDS011;44634;54.110;12.138;2023-05-10T03:56:24;5.00;;;4.30;;
16480;SDS011;44634;54.110;12.138;2023-05-10T03:58:52;4.60;;;4.20;;
16480;SDS011;44634;54.110;12.138;2023-05-10T04:01:20;5.87;;;4.70;;
16480;SDS011;44634;54.110;12.138;2023-05-10T04:03:48;5.33;;;4.43;;
16480;SDS011;44634;54.110;12.138;2023-05-10T04:06:15;5.23;;;4.60;;
16480;SDS011;44634;54.110;12.138;2023-05-10T04:08:43;6.33;;;5.07;;
16480;SDS011;44634;54.110;12.138;2023-05-10T04:11:12;5.33;;;4.83;;
16480;SDS011;44634;54.110;12.138;2023-05-10T04:13:40;6.53;;;5.47;;
16480;SDS011;44634;54.110;12.138;2023-05-10T04:16:09;4.77;;;4.37;;
16480;SDS011;44634;54.110;12.138;2023-05-10T04:18:37;4.70;;;4.30;;
16480;SDS011;44634;54.110;12.138;2023-05-10T04:21:10;5.17;;;4.77;;
16480;SDS011;44634;54.110;12.138;2023-05-10T04:23:39;5.53;;;4.70;;
16480;SDS011;44634;54.110;12.138;2023-05-10T04:26:07;6.17;;;4.57;;
16480;SDS011;44634;54.110;12.138;2023-05-10T04:28:36;5.57;;;4.80;;
16480;SDS011;44634;54.110;12.138;2023-05-10T04:31:05;4.20;;;3.80;;
16480;SDS011;44634;54.110;12.138;2023-05-10T04:33:34;5.00;;;4.43;;
16480;SDS011;44634;54.110;12.138;2023-05-10T04:36:02;5.47;;;4.23;;
16480;SDS011;44634;54.110;12.138;2023-05-10T04:38:31;5.10;;;4.50;;
16480;SDS011;44634;54.110;12.138;2023-05-10T04:41:05;4.93;;;4.20;;
16480;SDS011;44634;54.110;12.138;2023-05-10T04:43:33;6.77;;;4.43;;
16480;SDS011;44634;54.110;12.138;2023-05-10T04:46:03;5.27;;;4.67;;
16480;SDS011;44634;54.110;12.138;2023-05-10T04:48:32;4.77;;;4.27;;
16480;SDS011;44634;54.110;12.138;2023-05-10T04:51:00;4.77;;;4.47;;
16480;SDS011;44634;54.110;12.138;2023-05-10T04:53:29;4.93;;;4.53;;
16480;SDS011;44634;54.110;12.138;2023-05-10T04:55:57;4.83;;;4.23;;
16480;SDS011;44634;54.110;12.138;2023-05-10T04:58:25;4.57;;;4.23;;
16480;SDS011;44634;54.110;12.138;2023-05-10T05:00:53;4.67;;;4.27;;
16480;SDS011;44634;54.110;12.138;2023-05-10T05:03:22;4.80;;;4.40;;
16480;SDS011;44634;54.110;12.138;2023-05-10T05:05:50;7.10;;;4.17;;
16480;SDS011;44634;54.110;12.138;2023-05-10T05:08:18;6.73;;;4.43;;
16480;SDS011;44634;54.110;12.138;2023-05-10T05:10:49;4.60;;;4.20;;
16480;SDS011;44634;54.110;12.138;2023-05-10T05:13:16;5.47;;;4.57;;
16480;SDS011;44634;54.110;12.138;2023-05-10T05:15:45;4.87;;;4.43;;
16480;SDS011;44634;54.110;12.138;2023-05-10T05:18:13;4.67;;;4.23;;
16480;SDS011;44634;54.110;12.138;2023-05-10T05:20:42;5.00;;;4.13;;
16480;SDS011;44634;54.110;12.138;2023-05-10T05:23:10;9.77;;;4.70;;
16480;SDS011;44634;54.110;12.138;2023-05-10T05:25:38;4.90;;;4.50;;
16480;SDS011;44634;54.110;12.138;2023-05-10T05:28:08;4.90;;;4.40;;
16480;SDS011;44634;54.110;12.138;2023-05-10T05:30:36;4.20;;;3.87;;
16480;SDS011;44634;54.110;12.138;2023-05-10T05:33:04;4.10;;;3.80;;
16480;SDS011;44634;54.110;12.138;2023-05-10T05:35:32;5.23;;;4.10;;
16480;SDS011;44634;54.110;12.138;2023-05-10T05:38:02;4.87;;;4.07;;
16480;SDS011;44634;54.110;12.138;2023-05-10T05:40:29;5.07;;;4.57;;
16480;SDS011;44634;54.110;12.138;2023-05-10T05:42:57;4.00;;;3.70;;
16480;SDS011;44634;54.110;12.138;2023-05-10T05:45:25;5.10;;;3.80;;
16480;SDS011;44634;54.110;12.138;2023-05-10T05:47:53;4.40;;;4.03;;
16480;SDS011;44634;54.110;12.138;2023-05-10T05:50:21;4.53;;;3.70;;
16480;SDS011;44634;54.110;12.138;2023-05-10T05:52:48;3.90;;;3.60;;
16480;SDS011;44634;54.110;12.138;2023-05-10T05:55:18;6.90;;;4.17;;
16480;SDS011;44634;54.110;12.138;2023-05-10T05:57:46;4.20;;;3.80;;
16480;SDS011;44634;54.110;12.138;2023-05-10T06:00:14;4.30;;;4.00;;
16480;SDS011;44634;54.110;12.138;2023-05-10T06:02:43;5.30;;;3.80;;
16480;SDS011;44634;54.110;12.138;2023-05-10T06:05:11;3.87;;;3.67;;
16480;SDS011;44634;54.110;12.138;2023-05-10T06:07:40;4.43;;;4.03;;
16480;SDS011;44634;54.110;12.138;2023-05-10T06:10:09;4.43;;;3.63;;
16480;SDS011;44634;54.110;12.138;2023-05-10T06:12:38;4.10;;;3.70;;
16480;SDS011;44634;54.110;12.138;2023-05-10T06:15:07;5.80;;;3.50;;
16480;SDS011;44634;54.110;12.138;2023-05-10T06:17:35;5.20;;;4.70;;
16480;SDS011;44634;54.110;12.138;2023-05-10T06:20:05;4.33;;;3.97;;
16480;SDS011;44634;54.110;12.138;2023-05-10T06:22:34;4.23;;;3.83;;
16480;SDS011;44634;54.110;12.138;2023-05-10T06:25:02;4.83;;;4.30;;
16480;SDS011;44634;54.110;12.138;2023-05-10T06:27:29;4.07;;;3.27;;
16480;SDS011;44634;54.110;12.138;2023-05-10T06:29:59;4.47;;;3.60;;
16480;SDS011;44634;54.110;12.138;2023-05-10T06:32:38;3.87;;;3.47;;
16480;SDS011;44634;54.110;12.138;2023-05-10T06:35:06;3.60;;;3.40;;
16480;SDS011;44634;54.110;12.138;2023-05-10T06:37:35;7.73;;;3.67;;
16480;SDS011;44634;54.110;12.138;2023-05-10T06:40:03;3.27;;;2.97;;
16480;SDS011;44634;54.110;12.138;2023-05-10T06:42:31;3.20;;;2.93;;
16480;SDS011;44634;54.110;12.138;2023-05-10T06:45:00;3.60;;;3.40;;
16480;SDS011;44634;54.110;12.138;2023-05-10T06:47:28;3.90;;;3.60;;
16480;SDS011;44634;54.110;12.138;2023-05-10T06:49:56;3.87;;;3.50;;
16480;SDS011;44634;54.110;12.138;2023-05-10T06:52:24;3.90;;;3.47;;
16480;SDS011;44634;54.110;12.138;2023-05-10T06:54:52;4.10;;;3.43;;
16480;SDS011;44634;54.110;12.138;2023-05-10T06:57:19;4.90;;;3.23;;
16480;SDS011;44634;54.110;12.138;2023-05-10T06:59:57;2.90;;;2.80;;
16480;SDS011;44634;54.110;12.138;2023-05-10T07:02:26;3.27;;;3.07;;
16480;SDS011;44634;54.110;12.138;2023-05-10T07:04:55;3.80;;;3.50;;
16480;SDS011;44634;54.110;12.138;2023-05-10T07:07:26;3.03;;;2.83;;
16480;SDS011;44634;54.110;12.138;2023-05-10T07:09:54;4.97;;;3.50;;
16480;SDS011;44634;54.110;12.138;2023-05-10T07:12:22;3.17;;;2.97;;
16480;SDS011;44634;54.110;12.138;2023-05-10T07:14:50;3.23;;;3.03;;
16480;SDS011;44634;54.110;12.138;2023-05-10T07:17:18;5.47;;;3.00;;
16480;SDS011;44634;54.110;12.138;2023-05-10T07:19:47;2.73;;;2.60;;
16480;SDS011;44634;54.110;12.138;2023-05-10T07:22:16;3.43;;;3.20;;
16480;SDS011;44634;54.110;12.138;2023-05-10T07:24:44;4.03;;;3.20;;
16480;SDS011;44634;54.110;12.138;2023-05-10T07:27:12;4.00;;;2.97;;
16480;SDS011;44634;54.110;12.138;2023-05-10T07:29:40;3.20;;;3.00;;
16480;SDS011;44634;54.110;12.138;2023-05-10T07:32:08;2.90;;;2.80;;
16480;SDS011;44634;54.110;12.138;2023-05-10T07:34:36;3.40;;;3.00;;
16480;SDS011;44634;54.110;12.138;2023-05-10T07:37:06;4.00;;;3.30;;
16480;SDS011;44634;54.110;12.138;2023-05-10T07:39:34;2.67;;;2.57;;
16480;SDS011;44634;54.110;12.138;2023-05-10T07:42:02;3.90;;;2.70;;
16480;SDS011;44634;54.110;12.138;2023-05-10T07:44:30;3.43;;;2.57;;
16480;SDS011;44634;54.110;12.138;2023-05-10T07:46:57;4.87;;;3.17;;
16480;SDS011;44634;54.110;12.138;2023-05-10T07:49:25;3.33;;;3.13;;
16480;SDS011;44634;54.110;12.138;2023-05-10T07:51:53;4.23;;;3.33;;
16480;SDS011;44634;54.110;12.138;2023-05-10T07:54:22;3.33;;;3.03;;
16480;SDS011;44634;54.110;12.138;2023-05-10T07:56:50;3.40;;;3.10;;
16480;SDS011;44634;54.110;12.138;2023-05-10T07:59:18;3.43;;;3.10;;
16480;SDS011;44634;54.110;12.138;2023-05-10T08:01:46;3.37;;;2.43;;
16480;SDS011;44634;54.110;12.138;2023-05-10T08:04:14;3.27;;;2.90;;
16480;SDS011;44634;54.110;12.138;2023-05-10T08:06:42;4.07;;;3.27;;
16480;SDS011;44634;54.110;12.138;2023-05-10T08:09:10;2.93;;;2.77;;
16480;SDS011;44634;54.110;12.138;2023-05-10T08:11:39;3.30;;;3.10;;
16480;SDS011;44634;54.110;12.138;2023-05-10T08:14:07;3.30;;;3.10;;
16480;SDS011;44634;54.110;12.138;2023-05-10T08:16:35;3.17;;;2.97;;
16480;SDS011;44634;54.110;12.138;2023-05-10T08:19:03;2.87;;;2.67;;
16480;SDS011;44634;54.110;12.138;2023-05-10T08:21:31;3.00;;;2.80;;
16480;SDS011;44634;54.110;12.138;2023-05-10T08:23:59;3.63;;;3.30;;
16480;SDS011;44634;54.110;12.138;2023-05-10T08:26:27;3.20;;;3.00;;
16480;SDS011;44634;54.110;12.138;2023-05-10T08:28:57;4.30;;;3.03;;
16480;SDS011;44634;54.110;12.138;2023-05-10T08:31:24;3.20;;;2.90;;
16480;SDS011;44634;54.110;12.138;2023-05-10T08:33:52;3.43;;;3.00;;
16480;SDS011;44634;54.110;12.138;2023-05-10T08:36:20;2.90;;;2.70;;
16480;SDS011;44634;54.110;12.138;2023-05-10T08:38:50;3.87;;;2.77;;
16480;SDS011;44634;54.110;12.138;2023-05-10T08:41:19;3.03;;;2.83;;
16480;SDS011;44634;54.110;12.138;2023-05-10T08:43:48;3.40;;;3.30;;
16480;SDS011;44634;54.110;12.138;2023-05-10T08:46:19;4.03;;;3.33;;
16480;SDS011;44634;54.110;12.138;2023-05-10T08:48:48;3.57;;;3.27;;
16480;SDS011;44634;54.110;12.138;2023-05-10T08:51:18;2.83;;;2.70;;
16480;SDS011;44634;54.110;12.138;2023-05-10T08:53:50;3.47;;;3.17;;
16480;SDS011;44634;54.110;12.138;2023-05-10T08:56:18;3.10;;;2.90;;
16480;SDS011;44634;54.110;12.138;2023-05-10T08:58:46;3.33;;;3.03;;
16480;SDS011;44634;54.110;12.138;2023-05-10T09:01:15;3.97;;;3.00;;
16480;SDS011;44634;54.110;12.138;2023-05-10T09:03:45;3.10;;;2.90;;
16480;SDS011;44634;54.110;12.138;2023-05-10T09:06:14;3.43;;;3.27;;
16480;SDS011;44634;54.110;12.138;2023-05-10T09:08:42;14.07;;;3.40;;
16480;SDS011;44634;54.110;12.138;2023-05-10T09:11:11;2.97;;;2.80;;
16480;SDS011;44634;54.110;12.138;2023-05-10T09:13:39;3.43;;;3.17;;
16480;SDS011;44634;54.110;12.138;2023-05-10T09:16:07;3.37;;;2.77;;
16480;SDS011;44634;54.110;12.138;2023-05-10T09:18:48;3.20;;;2.90;;
16480;SDS011;44634;54.110;12.138;2023-05-10T09:21:17;5.07;;;2.97;;
16480;SDS011;44634;54.110;12.138;2023-05-10T09:23:48;2.87;;;2.57;;
16480;SDS011;44634;54.110;12.138;2023-05-10T09:26:21;3.30;;;3.10;;
16480;SDS011;44634;54.110;12.138;2023-05-10T09:28:50;6.33;;;5.00;;
16480;SDS011;44634;54.110;12.138;2023-05-10T09:31:18;3.10;;;2.90;;
16480;SDS011;44634;54.110;12.138;2023-05-10T09:33:47;3.10;;;2.90;;
16480;SDS011;44634;54.110;12.138;2023-05-10T09:36:17;2.87;;;2.70;;
16480;SDS011;44634;54.110;12.138;2023-05-10T09:38:45;3.00;;;2.57;;
16480;SDS011;44634;54.110;12.138;2023-05-10T09:41:17;2.83;;;2.63;;
16480;SDS011;44634;54.110;12.138;2023-05-10T09:43:46;2.97;;;2.77;;
16480;SDS011;44634;54.110;12.138;2023-05-10T09:46:14;3.07;;;2.87;;
16480;SDS011;44634;54.110;12.138;2023-05-10T09:48:44;3.43;;;2.90;;
16480;SDS011;44634;54.110;12.138;2023-05-10T09:51:19;4.17;;;3.37;;
16480;SDS011;44634;54.110;12.138;2023-05-10T09:53:47;5.90;;;3.00;;
16480;SDS011;44634;54.110;12.138;2023-05-10T09:59:03;2.90;;;2.80;;
16480;SDS011;44634;54.110;12.138;2023-05-10T10:01:32;3.00;;;2.80;;
16480;SDS011;44634;54.110;12.138;2023-05-10T10:04:02;2.83;;;2.73;;
16480;SDS011;44634;54.110;12.138;2023-05-10T10:06:36;3.00;;;2.80;;
16480;SDS011;44634;54.110;12.138;2023-05-10T10:09:05;3.10;;;2.90;;
16480;SDS011;44634;54.110;12.138;2023-05-10T10:11:33;2.80;;;2.70;;
16480;SDS011;44634;54.110;12.138;2023-05-10T10:14:02;3.33;;;3.03;;
16480;SDS011;44634;54.110;12.138;2023-05-10T10:16:30;3.33;;;2.90;;
16480;SDS011;44634;54.110;12.138;2023-05-10T10:18:59;3.40;;;2.90;;
16480;SDS011;44634;54.110;12.138;2023-05-10T10:21:28;3.53;;;2.73;;
16480;SDS011;44634;54.110;12.138;2023-05-10T10:23:57;3.03;;;2.90;;
16480;SDS011;44634;54.110;12.138;2023-05-10T10:26:24;3.07;;;2.77;;
16480;SDS011;44634;54.110;12.138;2023-05-10T10:28:56;2.90;;;2.80;;
16480;SDS011;44634;54.110;12.138;2023-05-10T10:31:34;4.63;;;3.37;;
16480;SDS011;44634;54.110;12.138;2023-05-10T10:34:06;3.00;;;2.70;;
16480;SDS011;44634;54.110;12.138;2023-05-10T10:36:42;2.70;;;2.60;;
16480;SDS011;44634;54.110;12.138;2023-05-10T10:39:13;2.80;;;2.67;;
16480;SDS011;44634;54.110;12.138;2023-05-10T10:41:48;2.83;;;2.63;;
16480;SDS011;44634;54.110;12.138;2023-05-10T10:44:24;2.90;;;2.80;;
16480;SDS011;44634;54.110;12.138;2023-05-10T10:47:00;2.80;;;2.70;;
16480;SDS011;44634;54.110;12.138;2023-05-10T10:49:48;2.60;;;2.50;;
16480;SDS011;44634;54.110;12.138;2023-05-10T10:52:22;3.50;;;2.60;;
16480;SDS011;44634;54.110;12.138;2023-05-10T10:55:00;2.70;;;2.50;;
16480;SDS011;44634;54.110;12.138;2023-05-10T10:57:33;2.77;;;2.67;;
16480;SDS011;44634;54.110;12.138;2023-05-10T11:00:24;3.23;;;2.57;;
16480;SDS011;44634;54.110;12.138;2023-05-10T11:02:56;2.20;;;2.10;;
16480;SDS011;44634;54.110;12.138;2023-05-10T11:05:36;2.40;;;2.30;;
16480;SDS011;44634;54.110;12.138;2023-05-10T11:08:12;2.40;;;2.30;;
16480;SDS011;44634;54.110;12.138;2023-05-10T11:10:53;2.80;;;2.60;;
16480;SDS011;44634;54.110;12.138;2023-05-10T11:13:31;2.70;;;2.60;;
16480;SDS011;44634;54.110;12.138;2023-05-10T11:16:09;2.50;;;2.40;;
16480;SDS011;44634;54.110;12.138;2023-05-10T11:18:39;3.90;;;2.50;;
16480;SDS011;44634;54.110;12.138;2023-05-10T11:21:08;2.33;;;2.23;;
16480;SDS011;44634;54.110;12.138;2023-05-10T11:23:49;2.90;;;2.70;;
16480;SDS011;44634;54.110;12.138;2023-05-10T11:26:24;2.53;;;2.43;;
16480;SDS011;44634;54.110;12.138;2023-05-10T11:28:53;2.60;;;2.50;;
16480;SDS011;44634;54.110;12.138;2023-05-10T11:31:25;2.83;;;2.37;;
16480;SDS011;44634;54.110;12.138;2023-05-10T11:33:53;2.90;;;2.70;;
16480;SDS011;44634;54.110;12.138;2023-05-10T11:36:23;2.50;;;2.40;;
16480;SDS011;44634;54.110;12.138;2023-05-10T11:38:53;2.60;;;2.50;;
16480;SDS011;44634;54.110;12.138;2023-05-10T11:41:22;3.10;;;2.90;;
16480;SDS011;44634;54.110;12.138;2023-05-10T11:43:52;2.70;;;2.50;;
16480;SDS011;44634;54.110;12.138;2023-05-10T11:46:21;2.00;;;2.00;;
16480;SDS011;44634;54.110;12.138;2023-05-10T11:48:51;2.50;;;2.40;;
16480;SDS011;44634;54.110;12.138;2023-05-10T11:51:20;2.30;;;2.30;;
16480;SDS011;44634;54.110;12.138;2023-05-10T11:53:49;2.50;;;2.40;;
16480;SDS011;44634;54.110;12.138;2023-05-10T11:56:17;2.80;;;2.60;;
16480;SDS011;44634;54.110;12.138;2023-05-10T11:58:52;3.13;;;2.80;;
16480;SDS011;44634;54.110;12.138;2023-05-10T12:01:21;2.50;;;2.40;;
16480;SDS011;44634;54.110;12.138;2023-05-10T12:03:50;3.13;;;2.93;;
16480;SDS011;44634;54.110;12.138;2023-05-10T12:06:20;2.67;;;2.57;;
16480;SDS011;44634;54.110;12.138;2023-05-10T12:08:48;2.60;;;2.40;;
16480;SDS011;44634;54.110;12.138;2023-05-10T12:11:18;2.80;;;2.70;;
16480;SDS011;44634;54.110;12.138;2023-05-10T12:13:49;3.67;;;2.60;;
16480;SDS011;44634;54.110;12.138;2023-05-10T12:16:18;3.23;;;2.73;;
16480;SDS011;44634;54.110;12.138;2023-05-10T12:18:47;3.10;;;2.80;;
16480;SDS011;44634;54.110;12.138;2023-05-10T12:21:17;2.40;;;2.30;;
16480;SDS011;44634;54.110;12.138;2023-05-10T12:26:17;2.70;;;2.50;;
16480;SDS011;44634;54.110;12.138;2023-05-10T12:28:46;2.50;;;2.30;;
16480;SDS011;44634;54.110;12.138;2023-05-10T12:31:15;4.90;;;2.47;;
16480;SDS011;44634;54.110;12.138;2023-05-10T12:33:43;2.60;;;2.40;;
16480;SDS011;44634;54.110;12.138;2023-05-10T12:36:13;2.23;;;2.13;;
16480;SDS011;44634;54.110;12.138;2023-05-10T12:38:42;7.47;;;2.50;;
16480;SDS011;44634;54.110;12.138;2023-05-10T12:41:11;2.50;;;2.30;;
16480;SDS011;44634;54.110;12.138;2023-05-10T12:43:40;2.30;;;2.20;;
16480;SDS011;44634;54.110;12.138;2023-05-10T12:46:09;2.33;;;2.23;;
16480;SDS011;44634;54.110;12.138;2023-05-10T12:48:39;2.23;;;2.10;;
16480;SDS011;44634;54.110;12.138;2023-05-10T12:51:08;2.47;;;2.37;;
16480;SDS011;44634;54.110;12.138;2023-05-10T12:53:38;2.00;;;2.00;;
16480;SDS011;44634;54.110;12.138;2023-05-10T12:56:10;2.60;;;2.50;;
16480;SDS011;44634;54.110;12.138;2023-05-10T12:58:38;2.87;;;2.67;;
16480;SDS011;44634;54.110;12.138;2023-05-10T13:01:05;2.47;;;2.37;;
16480;SDS011;44634;54.110;12.138;2023-05-10T13:03:34;2.57;;;2.30;;
16480;SDS011;44634;54.110;12.138;2023-05-10T13:06:04;2.43;;;2.33;;
16480;SDS011;44634;54.110;12.138;2023-05-10T13:08:32;3.53;;;2.37;;
16480;SDS011;44634;54.110;12.138;2023-05-10T13:11:00;2.83;;;2.67;;
16480;SDS011;44634;54.110;12.138;2023-05-10T13:13:29;2.80;;;2.57;;
16480;SDS011;44634;54.110;12.138;2023-05-10T13:15:57;2.60;;;2.40;;
16480;SDS011;44634;54.110;12.138;2023-05-10T13:18:24;2.80;;;2.60;;
16480;SDS011;44634;54.110;12.138;2023-05-10T13:20:53;3.00;;;2.23;;
16480;SDS011;44634;54.110;12.138;2023-05-10T13:23:23;2.73;;;2.63;;
16480;SDS011;44634;54.110;12.138;2023-05-10T13:25:51;2.50;;;2.40;;
16480;SDS011;44634;54.110;12.138;2023-05-10T13:28:18;2.40;;;2.30;;
16480;SDS011;44634;54.110;12.138;2023-05-10T13:30:46;2.70;;;2.50;;
16480;SDS011;44634;54.110;12.138;2023-05-10T13:33:14;2.50;;;2.40;;
16480;SDS011;44634;54.110;12.138;2023-05-10T13:35:42;3.10;;;2.90;;
16480;SDS011;44634;54.110;12.138;2023-05-10T13:38:10;2.70;;;2.50;;
16480;SDS011;44634;54.110;12.138;2023-05-10T13:40:39;2.70;;;2.60;;
16480;SDS011;44634;54.110;12.138;2023-05-10T13:43:07;2.97;;;2.70;;
16480;SDS011;44634;54.110;12.138;2023-05-10T13:45:35;2.77;;;2.63;;
16480;SDS011;44634;54.110;12.138;2023-05-10T13:48:03;2.57;;;2.47;;
16480;SDS011;44634;54.110;12.138;2023-05-10T13:50:31;3.60;;;2.77;;
16480;SDS011;44634;54.110;12.138;2023-05-10T13:52:59;2.37;;;2.27;;
16480;SDS011;44634;54.110;12.138;2023-05-10T13:55:27;2.80;;;2.60;;
16480;SDS011;44634;54.110;12.138;2023-05-10T13:57:56;2.83;;;2.43;;
16480;SDS011;44634;54.110;12.138;2023-05-10T14:00:24;2.43;;;2.33;;
16480;SDS011;44634;54.110;12.138;2023-05-10T14:02:52;2.80;;;2.70;;
16480;SDS011;44634;54.110;12.138;2023-05-10T14:05:19;2.83;;;2.60;;
16480;SDS011;44634;54.110;12.138;2023-05-10T14:07:51;2.80;;;2.60;;
16480;SDS011;44634;54.110;12.138;2023-05-10T14:10:19;2.73;;;2.53;;
16480;SDS011;44634;54.110;12.138;2023-05-10T14:12:47;2.90;;;2.70;;
16480;SDS011;44634;54.110;12.138;2023-05-10T14:15:16;2.93;;;2.73;;
16480;SDS011;44634;54.110;12.138;2023-05-10T14:17:45;2.60;;;2.40;;
16480;SDS011;44634;54.110;12.138;2023-05-10T14:20:13;2.50;;;2.40;;
16480;SDS011;44634;54.110;12.138;2023-05-10T14:22:41;2.83;;;2.63;;
16480;SDS011;44634;54.110;12.138;2023-05-10T14:25:09;3.00;;;2.80;;
16480;SDS011;44634;54.110;12.138;2023-05-10T14:27:36;2.80;;;2.70;;
16480;SDS011;44634;54.110;12.138;2023-05-10T14:30:05;2.57;;;2.47;;
16480;SDS011;44634;54.110;12.138;2023-05-10T14:32:35;3.30;;;2.97;;
16480;SDS011;44634;54.110;12.138;2023-05-10T14:35:04;2.63;;;2.47;;
16480;SDS011;44634;54.110;12.138;2023-05-10T14:37:36;3.20;;;3.00;;
16480;SDS011;44634;54.110;12.138;2023-05-10T14:40:04;3.10;;;2.90;;
16480;SDS011;44634;54.110;12.138;2023-05-10T14:42:33;2.67;;;2.47;;
16480;SDS011;44634;54.110;12.138;2023-05-10T14:45:01;2.37;;;2.30;;
16480;SDS011;44634;54.110;12.138;2023-05-10T14:47:29;2.80;;;2.60;;
16480;SDS011;44634;54.110;12.138;2023-05-10T14:49:58;2.70;;;2.60;;
16480;SDS011;44634;54.110;12.138;2023-05-10T14:52:26;3.10;;;2.90;;
16480;SDS011;44634;54.110;12.138;2023-05-10T14:54:54;2.70;;;2.50;;